createdAt,value
2018-11-27T00:00:43.167Z,99.90
2018-11-27T00:03:11.377Z,99.90
2018-11-27T00:05:39.596Z,99.90
2018-11-27T00:08:08.178Z,99.90
2018-11-27T00:10:38.724Z,99.90
2018-11-27T00:13:06.934Z,99.40
2018-11-27T00:15:35.191Z,99.60
2018-11-27T00:18:03.478Z,99.20
2018-11-27T00:20:31.695Z,99.90
2018-11-27T00:22:59.930Z,99.70
2018-11-27T00:25:28.126Z,99.20
2018-11-27T00:27:56.341Z,99.30
2018-11-27T00:30:24.656Z,99.50
2018-11-27T00:32:52.863Z,99.40
2018-11-27T00:35:21.083Z,99.90
2018-11-27T00:37:49.326Z,99.70
2018-11-27T00:40:19.933Z,99.50
2018-11-27T00:42:48.149Z,99.80
2018-11-27T00:45:17.503Z,99.90
2018-11-27T00:47:46.625Z,99.80
2018-11-27T00:50:20.189Z,99.90
2018-11-27T00:52:48.419Z,99.90
2018-11-27T00:55:17.893Z,99.90
2018-11-27T00:57:47.538Z,99.90
2018-11-27T01:00:18.034Z,99.90
2018-11-27T01:02:46.329Z,99.90
2018-11-27T01:05:17.376Z,99.90
2018-11-27T01:07:45.737Z,99.60
2018-11-27T01:10:21.870Z,99.70
2018-11-27T01:12:56.481Z,99.90
2018-11-27T01:15:24.725Z,99.60
2018-11-27T01:17:55.323Z,99.90
2018-11-27T01:20:24.096Z,99.90
2018-11-27T01:22:52.309Z,99.90
2018-11-27T01:25:20.530Z,99.90
2018-11-27T01:27:48.837Z,99.90
2018-11-27T01:30:19.261Z,99.90
2018-11-27T01:32:47.649Z,99.90
2018-11-27T01:35:17.664Z,99.60
2018-11-27T01:37:46.444Z,99.90
2018-11-27T01:40:17.727Z,99.50
2018-11-27T01:42:46.782Z,99.90
2018-11-27T01:45:16.388Z,99.70
2018-11-27T01:47:44.641Z,99.90
2018-11-27T01:50:14.736Z,99.90
2018-11-27T01:52:42.985Z,99.90
2018-11-27T01:55:12.394Z,99.90
2018-11-27T01:57:40.622Z,99.90
2018-11-27T02:00:16.504Z,99.90
2018-11-27T02:02:44.740Z,99.50
2018-11-27T02:05:12.946Z,99.90
2018-11-27T02:07:41.222Z,99.90
2018-11-27T02:10:11.751Z,99.90
2018-11-27T02:12:40.967Z,99.90
2018-11-27T02:15:13.831Z,99.60
2018-11-27T02:17:42.094Z,99.60
2018-11-27T02:20:11.242Z,99.90
2018-11-27T02:22:39.660Z,99.80
2018-11-27T02:25:13.874Z,99.70
2018-11-27T02:27:42.117Z,99.80
2018-11-27T02:30:14.053Z,99.90
2018-11-27T02:32:42.391Z,99.90
2018-11-27T02:35:13.369Z,99.90
2018-11-27T02:37:41.586Z,99.90
2018-11-27T02:40:11.320Z,99.90
2018-11-27T02:42:39.683Z,99.90
2018-11-27T02:45:10.452Z,99.90
2018-11-27T02:47:38.923Z,99.50
2018-11-27T02:50:09.897Z,99.90
2018-11-27T02:52:38.102Z,99.90
2018-11-27T02:55:08.428Z,99.90
2018-11-27T02:57:36.679Z,99.90
2018-11-27T03:00:06.333Z,99.90
2018-11-27T03:02:34.742Z,99.90
2018-11-27T03:05:03.049Z,99.90
2018-11-27T03:07:31.266Z,99.80
2018-11-27T03:09:59.477Z,99.90
2018-11-27T03:12:27.699Z,99.90
2018-11-27T03:14:55.921Z,99.90
2018-11-27T03:17:24.137Z,99.70
2018-11-27T03:19:52.365Z,99.90
2018-11-27T03:22:20.570Z,99.80
2018-11-27T03:24:48.775Z,99.90
2018-11-27T03:27:17.328Z,99.80
2018-11-27T03:29:45.546Z,99.90
2018-11-27T03:32:13.758Z,99.90
2018-11-27T03:34:42.058Z,99.90
2018-11-27T03:37:10.265Z,99.70
2018-11-27T03:39:38.626Z,99.90
2018-11-27T03:42:06.877Z,99.90
2018-11-27T03:44:35.090Z,99.90
2018-11-27T03:47:03.297Z,99.90
2018-11-27T03:49:31.610Z,99.90
2018-11-27T03:51:59.814Z,99.80
2018-11-27T03:54:28.039Z,99.90
2018-11-27T03:56:56.279Z,99.90
2018-11-27T03:59:24.488Z,99.90
2018-11-27T04:01:52.794Z,99.90
2018-11-27T04:04:21.148Z,99.90
2018-11-27T04:06:49.334Z,99.90
2018-11-27T04:09:17.537Z,99.90
2018-11-27T04:11:45.858Z,99.90
2018-11-27T04:14:14.078Z,99.90
2018-11-27T04:16:42.273Z,99.90
2018-11-27T04:19:10.491Z,99.90
2018-11-27T04:21:38.704Z,99.90
2018-11-27T04:24:06.955Z,99.90
2018-11-27T04:26:35.337Z,99.90
2018-11-27T04:29:03.485Z,99.90
2018-11-27T04:31:31.693Z,99.90
2018-11-27T04:33:59.909Z,99.90
2018-11-27T04:36:28.123Z,99.90
2018-11-27T04:38:56.334Z,99.90
2018-11-27T04:41:24.610Z,99.90
2018-11-27T04:43:52.813Z,99.90
2018-11-27T04:46:21.043Z,99.90
2018-11-27T04:48:49.263Z,99.90
2018-11-27T04:51:17.475Z,99.90
2018-11-27T04:53:45.719Z,99.90
2018-11-27T04:56:13.934Z,99.90
2018-11-27T04:58:42.153Z,99.90
2018-11-27T05:01:10.366Z,99.90
2018-11-27T05:03:38.611Z,99.90
2018-11-27T05:06:06.818Z,99.90
2018-11-27T05:08:35.021Z,99.90
2018-11-27T05:11:03.346Z,99.90
2018-11-27T05:13:32.244Z,99.90
2018-11-27T05:15:59.761Z,99.90
2018-11-27T05:18:27.988Z,99.90
2018-11-27T05:20:56.206Z,99.90
2018-11-27T05:23:24.428Z,99.90
2018-11-27T05:25:56.620Z,99.90
2018-11-27T05:28:24.841Z,99.90
2018-11-27T05:30:53.161Z,99.90
2018-11-27T05:33:21.401Z,99.90
2018-11-27T05:35:49.600Z,99.90
2018-11-27T05:38:17.824Z,99.90
2018-11-27T05:40:46.368Z,99.90
2018-11-27T05:43:14.601Z,99.90
2018-11-27T05:45:42.800Z,99.90
2018-11-27T05:48:11.019Z,99.90
2018-11-27T05:50:39.228Z,99.90
2018-11-27T05:53:07.452Z,99.90
2018-11-27T05:55:35.766Z,99.90
2018-11-27T05:58:03.992Z,99.90
2018-11-27T06:00:32.247Z,99.90
2018-11-27T06:03:01.521Z,99.90
2018-11-27T06:05:29.800Z,99.90
2018-11-27T06:07:58.002Z,99.90
2018-11-27T06:10:26.271Z,99.90
2018-11-27T06:12:54.481Z,99.90
2018-11-27T06:15:23.512Z,99.90
2018-11-27T06:17:54.938Z,99.90
2018-11-27T06:20:23.427Z,99.90
2018-11-27T06:22:52.081Z,99.90
2018-11-27T06:25:21.288Z,99.90
2018-11-27T06:27:51.984Z,99.90
2018-11-27T06:30:22.362Z,99.90
2018-11-27T06:32:50.582Z,99.90
2018-11-27T06:35:33.691Z,99.90
2018-11-27T06:38:01.920Z,99.90
2018-11-27T06:40:31.014Z,99.90
2018-11-27T06:42:59.281Z,99.90
2018-11-27T06:45:27.485Z,99.90
2018-11-27T06:47:55.775Z,99.90
2018-11-27T06:50:24.085Z,99.90
2018-11-27T06:52:52.314Z,99.90
2018-11-27T06:55:22.509Z,99.90
2018-11-27T06:57:50.763Z,99.90
2018-11-27T07:00:21.324Z,99.90
2018-11-27T07:02:49.536Z,99.90
2018-11-27T07:05:18.040Z,99.90
2018-11-27T07:07:46.278Z,99.90
2018-11-27T07:10:18.706Z,99.90
2018-11-27T07:12:48.012Z,99.90
2018-11-27T07:15:18.473Z,99.90
2018-11-27T07:17:46.782Z,99.90
2018-11-27T07:20:14.977Z,99.90
2018-11-27T07:22:43.230Z,99.90
2018-11-27T07:25:12.790Z,99.90
2018-11-27T07:27:42.490Z,99.90
2018-11-27T07:30:13.766Z,99.90
2018-11-27T07:32:41.978Z,99.90
2018-11-27T07:35:11.710Z,99.90
2018-11-27T07:37:40.097Z,99.90
2018-11-27T07:40:14.424Z,99.90
2018-11-27T07:42:42.771Z,99.90
2018-11-27T07:45:13.229Z,99.90
2018-11-27T07:47:41.464Z,99.90
2018-11-27T07:50:10.624Z,99.90
2018-11-27T07:52:38.845Z,99.90
2018-11-27T07:55:13.793Z,99.90
2018-11-27T07:57:42.034Z,99.90
2018-11-27T08:00:11.570Z,99.90
2018-11-27T08:02:39.939Z,99.90
2018-11-27T08:05:10.721Z,99.90
2018-11-27T08:07:39.273Z,99.90
2018-11-27T08:10:17.687Z,99.90
2018-11-27T08:12:45.908Z,99.90
2018-11-27T08:15:15.272Z,99.90
2018-11-27T08:17:43.561Z,99.90
2018-11-27T08:20:14.144Z,99.90
2018-11-27T08:22:42.350Z,99.90
2018-11-27T08:25:12.885Z,99.90
2018-11-27T08:27:41.101Z,99.90
2018-11-27T08:30:18.196Z,99.90
2018-11-27T08:32:46.444Z,99.90
2018-11-27T08:35:15.791Z,99.90
2018-11-27T08:37:44.413Z,99.90
2018-11-27T08:40:13.883Z,99.90
2018-11-27T08:42:42.093Z,99.90
2018-11-27T08:45:13.537Z,99.90
2018-11-27T08:47:41.885Z,99.90
2018-11-27T08:50:26.835Z,99.90
2018-11-27T08:52:58.118Z,99.90
2018-11-27T08:55:28.641Z,99.90
2018-11-27T08:57:56.943Z,99.90
2018-11-27T09:00:25.885Z,99.70
2018-11-27T09:02:54.120Z,99.90
2018-11-27T09:05:22.363Z,99.90
2018-11-27T09:07:50.582Z,99.90
2018-11-27T09:10:21.373Z,99.90
2018-11-27T09:12:49.618Z,99.90
2018-11-27T09:15:19.001Z,99.90
2018-11-27T09:17:59.889Z,99.90
2018-11-27T09:20:28.096Z,99.90
2018-11-27T09:22:56.325Z,99.90
2018-11-27T09:25:24.646Z,99.90
2018-11-27T09:27:52.865Z,99.90
2018-11-27T09:30:24.215Z,99.90
2018-11-27T09:32:52.589Z,99.90
2018-11-27T09:35:20.844Z,99.90
2018-11-27T09:37:49.130Z,99.90
2018-11-27T09:40:18.655Z,99.90
2018-11-27T09:42:46.960Z,99.80
2018-11-27T09:45:19.197Z,99.90
2018-11-27T09:47:49.727Z,99.90
2018-11-27T09:50:17.981Z,99.90
2018-11-27T09:52:46.221Z,99.90
2018-11-27T09:55:17.310Z,99.80
2018-11-27T09:57:45.538Z,99.70
2018-11-27T10:00:16.202Z,99.80
2018-11-27T10:02:44.426Z,99.70
2018-11-27T10:05:12.772Z,99.50
2018-11-27T10:07:41.048Z,99.70
2018-11-27T10:10:10.957Z,99.90
2018-11-27T10:12:39.189Z,99.90
2018-11-27T10:15:25.335Z,99.90
2018-11-27T10:17:55.747Z,99.60
2018-11-27T10:20:25.404Z,99.70
2018-11-27T10:22:53.619Z,99.80
2018-11-27T10:25:21.868Z,99.70
2018-11-27T10:27:50.082Z,99.60
2018-11-27T10:30:22.570Z,99.80
2018-11-27T10:32:51.885Z,99.60
2018-11-27T10:35:24.333Z,99.70
2018-11-27T10:37:52.677Z,99.40
2018-11-27T10:40:20.932Z,99.50
2018-11-27T10:42:49.230Z,99.50
2018-11-27T10:45:20.419Z,99.30
2018-11-27T10:47:50.842Z,99.30
2018-11-27T10:50:19.323Z,99.50
2018-11-27T10:52:48.667Z,99.50
2018-11-27T10:55:17.655Z,99.40
2018-11-27T10:57:45.929Z,99.20
2018-11-27T11:00:22.734Z,98.70
2018-11-27T11:02:56.467Z,98.50
2018-11-27T11:05:32.977Z,98.30
2018-11-27T11:08:01.200Z,98.70
2018-11-27T11:10:29.428Z,98.50
2018-11-27T11:12:57.802Z,98.30
2018-11-27T11:15:26.198Z,98.30
2018-11-27T11:17:54.438Z,98.40
2018-11-27T11:20:23.313Z,98.50
2018-11-27T11:22:51.534Z,98.90
2018-11-27T11:25:21.071Z,99.10
2018-11-27T11:27:52.024Z,99.10
2018-11-27T11:30:21.107Z,99.10
2018-11-27T11:32:49.382Z,99.20
2018-11-27T11:35:17.649Z,98.90
2018-11-27T11:37:45.889Z,98.90
2018-11-27T11:40:17.157Z,98.70
2018-11-27T11:42:45.434Z,98.80
2018-11-27T11:45:13.668Z,98.50
2018-11-27T11:47:42.287Z,98.90
2018-11-27T11:50:16.653Z,98.60
2018-11-27T11:52:49.092Z,98.60
2018-11-27T11:55:18.022Z,98.70
2018-11-27T11:57:46.408Z,98.50
2018-11-27T12:00:17.556Z,98.50
2018-11-27T12:02:45.773Z,98.80
2018-11-27T12:05:14.035Z,98.80
2018-11-27T12:07:42.268Z,98.70
2018-11-27T12:10:12.905Z,98.90
2018-11-27T12:12:41.526Z,99.00
2018-11-27T12:15:16.830Z,98.70
2018-11-27T12:17:45.409Z,98.50
2018-11-27T12:20:14.681Z,98.60
2018-11-27T12:22:44.407Z,98.60
2018-11-27T12:25:13.286Z,98.50
2018-11-27T12:27:41.556Z,98.80
2018-11-27T12:30:15.402Z,98.70
2018-11-27T12:32:43.613Z,98.30
2018-11-27T12:35:12.298Z,98.60
2018-11-27T12:37:40.538Z,98.40
2018-11-27T12:40:15.167Z,98.40
2018-11-27T12:42:43.497Z,98.30
2018-11-27T12:45:13.221Z,98.30
2018-11-27T12:47:41.474Z,98.30
2018-11-27T12:50:13.276Z,98.20
2018-11-27T12:52:41.514Z,98.30
2018-11-27T12:55:13.189Z,98.10
2018-11-27T12:57:41.428Z,98.40
2018-11-27T13:00:12.180Z,98.50
2018-11-27T13:02:40.489Z,98.60
2018-11-27T13:05:10.400Z,98.30
2018-11-27T13:07:38.618Z,98.20
2018-11-27T13:10:13.700Z,98.10
2018-11-27T13:12:42.274Z,98.20
2018-11-27T13:15:12.012Z,98.40
2018-11-27T13:17:40.755Z,98.20
2018-11-27T13:20:10.978Z,98.20
2018-11-27T13:22:39.302Z,98.60
2018-11-27T13:25:10.209Z,98.30
2018-11-27T13:27:38.414Z,98.20
2018-11-27T13:30:13.358Z,98.10
2018-11-27T13:32:41.573Z,98.00
2018-11-27T13:35:11.299Z,97.80
2018-11-27T13:37:39.648Z,97.80
2018-11-27T13:40:09.701Z,98.00
2018-11-27T13:42:37.945Z,98.20
2018-11-27T13:45:09.537Z,97.90
2018-11-27T13:47:37.796Z,97.80
2018-11-27T13:50:09.314Z,97.70
2018-11-27T13:52:37.791Z,97.90
2018-11-27T13:55:10.658Z,97.70
2018-11-27T13:57:38.865Z,97.70
2018-11-27T14:00:13.446Z,97.70
2018-11-27T14:02:42.685Z,97.70
2018-11-27T14:05:14.328Z,97.90
2018-11-27T14:07:43.025Z,97.90
2018-11-27T14:10:11.825Z,97.80
2018-11-27T14:12:40.074Z,97.60
2018-11-27T14:15:24.426Z,97.70
2018-11-27T14:17:53.851Z,97.80
2018-11-27T14:20:22.071Z,98.10
2018-11-27T14:22:50.904Z,97.50
2018-11-27T14:25:19.163Z,97.60
2018-11-27T14:27:50.063Z,98.30
2018-11-27T14:30:20.049Z,98.20
2018-11-27T14:32:48.483Z,97.90
2018-11-27T14:35:17.618Z,97.80
2018-11-27T14:37:46.875Z,97.90
2018-11-27T14:40:18.067Z,98.20
2018-11-27T14:42:46.323Z,98.30
2018-11-27T14:45:16.814Z,98.20
2018-11-27T14:47:46.187Z,98.40
2018-11-27T14:50:14.411Z,98.20
2018-11-27T14:52:42.660Z,98.30
2018-11-27T14:55:12.971Z,98.50
2018-11-27T14:57:41.173Z,98.80
2018-11-27T15:00:11.415Z,98.70
2018-11-27T15:02:39.736Z,98.80
2018-11-27T15:05:25.165Z,98.60
2018-11-27T15:07:53.451Z,98.60
2018-11-27T15:10:21.763Z,98.90
2018-11-27T15:12:51.045Z,99.10
2018-11-27T15:15:19.261Z,99.20
2018-11-27T15:17:47.469Z,99.00
2018-11-27T15:20:18.947Z,99.20
2018-11-27T15:22:47.175Z,99.10
2018-11-27T15:25:15.425Z,99.50
2018-11-27T15:27:43.711Z,99.20
2018-11-27T15:30:21.725Z,99.40
2018-11-27T15:32:50.805Z,99.40
2018-11-27T15:35:19.014Z,99.20
2018-11-27T15:37:47.292Z,99.10
2018-11-27T15:40:17.534Z,99.40
2018-11-27T15:42:45.793Z,99.50
2018-11-27T15:45:15.447Z,99.70
2018-11-27T15:47:43.693Z,99.20
2018-11-27T15:50:11.929Z,99.30
2018-11-27T15:52:40.138Z,99.20
2018-11-27T15:55:11.677Z,99.30
2018-11-27T15:57:39.886Z,99.10
2018-11-27T16:00:13.657Z,99.20
2018-11-27T16:02:42.522Z,99.50
2018-11-27T16:05:10.877Z,99.30
2018-11-27T16:07:39.146Z,99.40
2018-11-27T16:10:13.692Z,99.30
2018-11-27T16:12:42.405Z,99.30
2018-11-27T16:15:12.615Z,99.20
2018-11-27T16:17:40.911Z,99.20
2018-11-27T16:20:11.648Z,99.00
2018-11-27T16:22:40.321Z,99.60
2018-11-27T16:25:12.468Z,99.40
2018-11-27T16:27:40.746Z,99.60
2018-11-27T16:30:40.193Z,99.50
2018-11-27T16:33:08.412Z,99.70
2018-11-27T16:35:36.733Z,99.90
2018-11-27T16:38:05.385Z,99.80
2018-11-27T16:40:37.027Z,99.70
2018-11-27T16:43:05.324Z,99.70
2018-11-27T16:45:33.542Z,99.90
2018-11-27T16:48:01.921Z,99.90
2018-11-27T16:50:30.148Z,99.60
2018-11-27T16:52:58.361Z,99.60
2018-11-27T16:55:26.578Z,99.50
2018-11-27T16:57:55.029Z,99.60
2018-11-27T17:00:29.577Z,99.60
2018-11-27T17:02:59.825Z,99.90
2018-11-27T17:05:31.424Z,99.90
2018-11-27T17:07:59.653Z,99.90
2018-11-27T17:10:27.866Z,99.90
2018-11-27T17:12:57.087Z,99.90
2018-11-27T17:15:26.495Z,99.50
2018-11-27T17:17:54.830Z,99.80
2018-11-27T17:20:29.900Z,99.70
2018-11-27T17:23:01.673Z,99.90
2018-11-27T17:25:29.881Z,99.80
2018-11-27T17:27:59.858Z,99.90
2018-11-27T17:30:36.225Z,99.90
2018-11-27T17:33:08.178Z,99.90
2018-11-27T17:35:36.400Z,99.90
2018-11-27T17:38:04.623Z,99.80
2018-11-27T17:40:32.837Z,99.70
2018-11-27T17:43:01.084Z,99.90
2018-11-27T17:45:29.289Z,99.80
2018-11-27T17:47:57.501Z,99.80
2018-11-27T17:50:25.761Z,99.90
2018-11-27T17:52:53.957Z,99.90
2018-11-27T17:55:22.176Z,99.90
2018-11-27T17:57:50.629Z,99.90
2018-11-27T18:00:34.272Z,99.90
2018-11-27T18:03:03.931Z,99.90
2018-11-27T18:05:32.220Z,99.90
2018-11-27T18:08:00.764Z,99.90
2018-11-27T18:10:28.650Z,99.90
2018-11-27T18:12:56.857Z,99.90
2018-11-27T18:15:25.069Z,99.90
2018-11-27T18:17:53.305Z,99.90
2018-11-27T18:20:21.509Z,99.90
2018-11-27T18:22:49.730Z,99.90
2018-11-27T18:25:19.135Z,99.90
2018-11-27T18:27:48.261Z,99.90
2018-11-27T18:30:18.978Z,99.90
2018-11-27T18:32:47.254Z,99.90
2018-11-27T18:35:17.401Z,99.90
2018-11-27T18:37:45.918Z,99.90
2018-11-27T18:40:14.955Z,99.90
2018-11-27T18:42:43.768Z,99.90
2018-11-27T18:45:29.778Z,99.90
2018-11-27T18:47:58.006Z,99.90
2018-11-27T18:50:28.248Z,99.90
2018-11-27T18:52:56.528Z,99.90
2018-11-27T18:55:24.898Z,99.90
2018-11-27T18:57:53.118Z,99.90
2018-11-27T19:00:23.637Z,99.90
2018-11-27T19:02:51.987Z,99.90
2018-11-27T19:05:20.236Z,99.90
2018-11-27T19:07:48.584Z,99.90
2018-11-27T19:10:18.753Z,99.90
2018-11-27T19:12:47.880Z,99.90
2018-11-27T19:15:51.330Z,99.90
2018-11-27T19:18:23.451Z,99.90
2018-11-27T19:20:51.742Z,99.90
2018-11-27T19:23:21.241Z,99.90
2018-11-27T19:25:49.569Z,99.90
2018-11-27T19:28:18.010Z,99.90
2018-11-27T19:30:46.470Z,99.90
2018-11-27T19:33:14.704Z,99.90
2018-11-27T19:35:43.069Z,99.90
2018-11-27T19:38:14.177Z,99.90
2018-11-27T19:40:42.387Z,99.90
2018-11-27T19:43:10.659Z,99.90
2018-11-27T19:45:38.953Z,99.90
2018-11-27T19:48:08.441Z,99.90
2018-11-27T19:50:37.150Z,99.90
2018-11-27T19:53:11.996Z,99.90
2018-11-27T19:55:35.931Z,99.90
2018-11-27T19:58:04.741Z,99.90
2018-11-27T20:00:33.054Z,99.90
2018-11-27T20:03:01.288Z,99.90
2018-11-27T20:05:30.100Z,99.90
2018-11-27T20:07:58.349Z,99.90
2018-11-27T20:10:26.565Z,99.90
2018-11-27T20:12:54.848Z,99.90
2018-11-27T20:15:28.002Z,99.90
2018-11-27T20:17:57.077Z,99.90
2018-11-27T20:20:26.479Z,99.90
2018-11-27T20:22:55.991Z,99.90
2018-11-27T20:25:24.914Z,99.90
2018-11-27T20:27:53.469Z,99.90
2018-11-27T20:30:24.327Z,99.90
2018-11-27T20:32:55.537Z,99.90
2018-11-27T20:35:23.858Z,99.90
2018-11-27T20:37:53.415Z,99.90
2018-11-27T20:40:21.866Z,99.90
2018-11-27T20:42:50.250Z,99.80
2018-11-27T20:45:20.781Z,99.60
2018-11-27T20:47:50.542Z,99.80
2018-11-27T20:50:19.717Z,99.70
2018-11-27T20:52:47.993Z,99.60
2018-11-27T20:55:16.370Z,99.60
2018-11-27T20:57:46.791Z,99.90
2018-11-27T21:00:18.276Z,99.90
2018-11-27T21:02:47.077Z,99.90
2018-11-27T21:05:15.312Z,99.90
2018-11-27T21:07:50.054Z,99.90
2018-11-27T21:10:18.291Z,99.90
2018-11-27T21:12:46.549Z,99.90
2018-11-27T21:15:17.242Z,99.90
2018-11-27T21:17:45.463Z,99.90
2018-11-27T21:20:14.605Z,99.90
2018-11-27T21:22:42.929Z,99.90
2018-11-27T21:25:16.255Z,99.90
2018-11-27T21:27:47.105Z,99.90
2018-11-27T21:30:16.402Z,99.90
2018-11-27T21:32:44.812Z,99.90
2018-11-27T21:35:15.033Z,99.90
2018-11-27T21:37:43.312Z,99.90
2018-11-27T21:40:13.505Z,99.90
2018-11-27T21:42:41.777Z,99.90
2018-11-27T21:45:13.986Z,99.90
2018-11-27T21:47:42.453Z,99.90
2018-11-27T21:50:15.074Z,99.90
2018-11-27T21:52:43.361Z,99.90
2018-11-27T21:55:12.700Z,99.90
2018-11-27T21:57:40.946Z,99.90
2018-11-27T22:00:12.998Z,99.90
2018-11-27T22:02:41.226Z,99.90
2018-11-27T22:05:09.765Z,99.90
2018-11-27T22:07:38.033Z,99.90
2018-11-27T22:10:08.994Z,99.90
2018-11-27T22:12:37.219Z,99.90
2018-11-27T22:15:08.287Z,99.90
2018-11-27T22:17:36.498Z,99.90
2018-11-27T22:20:05.983Z,99.90
2018-11-27T22:22:34.237Z,99.90
2018-11-27T22:25:02.465Z,99.90
2018-11-27T22:27:30.677Z,99.90
2018-11-27T22:29:58.913Z,99.90
2018-11-27T22:32:27.129Z,99.90
2018-11-27T22:34:55.349Z,99.90
2018-11-27T22:37:23.605Z,99.90
2018-11-27T22:39:51.831Z,99.90
2018-11-27T22:42:20.039Z,99.90
2018-11-27T22:44:48.270Z,99.90
2018-11-27T22:47:16.479Z,99.90
2018-11-27T22:49:44.694Z,99.90
2018-11-27T22:52:12.917Z,99.90
2018-11-27T22:54:41.117Z,99.90
2018-11-27T22:57:09.330Z,99.90
2018-11-27T22:59:38.022Z,99.90
2018-11-27T23:02:06.257Z,99.90
2018-11-27T23:04:34.483Z,99.90
2018-11-27T23:07:02.714Z,99.90
2018-11-27T23:09:30.930Z,99.90
2018-11-27T23:11:59.133Z,99.90
2018-11-27T23:14:27.460Z,99.90
2018-11-27T23:16:55.701Z,99.90
2018-11-27T23:19:23.918Z,99.90
2018-11-27T23:21:52.170Z,99.90
2018-11-27T23:24:20.389Z,99.90
2018-11-27T23:26:49.043Z,99.90
2018-11-27T23:29:17.339Z,99.90
2018-11-27T23:31:45.545Z,99.90
2018-11-27T23:34:13.759Z,99.90
2018-11-27T23:36:41.990Z,99.90
2018-11-27T23:39:10.208Z,99.90
2018-11-27T23:41:38.433Z,99.90
2018-11-27T23:44:06.805Z,99.90
2018-11-27T23:46:35.026Z,99.90
2018-11-27T23:49:03.238Z,99.90
2018-11-27T23:51:31.557Z,99.90
2018-11-27T23:53:59.765Z,99.90
2018-11-27T23:56:27.987Z,99.90
2018-11-27T23:58:56.249Z,99.90
